sensor_id;sensor_type;location;lat;lon;timestamp;temperature;humidity
71096;DHT22;58753;49.440;11.126;2022-10-16T00:00:36;15.22;90.41
71096;DHT22;58753;49.440;11.126;2022-10-16T00:03:02;15.23;90.45
71096;DHT22;58753;49.440;11.126;2022-10-16T00:05:28;15.22;90.45
71096;DHT22;58753;49.440;11.126;2022-10-16T00:07:53;15.19;90.52
71096;DHT22;58753;49.440;11.126;2022-10-16T00:10:18;15.17;90.57
71096;DHT22;58753;49.440;11.126;2022-10-16T00:12:44;15.16;90.66
71096;DHT22;58753;49.440;11.126;2022-10-16T00:15:09;15.16;90.66
71096;DHT22;58753;49.440;11.126;2022-10-16T00:17:35;15.17;90.70
71096;DHT22;58753;49.440;11.126;2022-10-16T00:20:01;15.16;90.67
71096;DHT22;58753;49.440;11.126;2022-10-16T00:22:26;15.14;90.67
71096;DHT22;58753;49.440;11.126;2022-10-16T00:24:52;15.11;90.80
71096;DHT22;58753;49.440;11.126;2022-10-16T00:27:17;15.11;90.85
71096;DHT22;58753;49.440;11.126;2022-10-16T00:29:43;15.10;90.97
71096;DHT22;58753;49.440;11.126;2022-10-16T00:32:08;15.08;91.06
71096;DHT22;58753;49.440;11.126;2022-10-16T00:34:34;15.08;91.06
71096;DHT22;58753;49.440;11.126;2022-10-16T00:36:59;15.08;91.06
71096;DHT22;58753;49.440;11.126;2022-10-16T00:39:24;15.13;91.12
71096;DHT22;58753;49.440;11.126;2022-10-16T00:41:50;15.10;91.09
71096;DHT22;58753;49.440;11.126;2022-10-16T00:44:43;15.08;91.11
71096;DHT22;58753;49.440;11.126;2022-10-16T00:49:58;15.08;91.20
71096;DHT22;58753;49.440;11.126;2022-10-16T00:52:25;15.07;91.28
71096;DHT22;58753;49.440;11.126;2022-10-16T00:54:52;15.04;91.36
71096;DHT22;58753;49.440;11.126;2022-10-16T00:57:18;15.04;91.42
71096;DHT22;58753;49.440;11.126;2022-10-16T00:59:43;15.03;91.51
71096;DHT22;58753;49.440;11.126;2022-10-16T01:02:12;15.02;91.58
71096;DHT22;58753;49.440;11.126;2022-10-16T01:04:40;14.97;91.62
71096;DHT22;58753;49.440;11.126;2022-10-16T01:15:41;14.93;91.93
71096;DHT22;58753;49.440;11.126;2022-10-16T01:20:54;14.89;91.97
71096;DHT22;58753;49.440;11.126;2022-10-16T01:31:08;14.80;92.36
71096;DHT22;58753;49.440;11.126;2022-10-16T01:33:45;14.82;92.37
71096;DHT22;58753;49.440;11.126;2022-10-16T01:36:18;14.82;92.44
71096;DHT22;58753;49.440;11.126;2022-10-16T01:38:49;14.79;92.50
71096;DHT22;58753;49.440;11.126;2022-10-16T01:41:32;14.79;92.53
71096;DHT22;58753;49.440;11.126;2022-10-16T01:44:04;14.75;92.59
71096;DHT22;58753;49.440;11.126;2022-10-16T01:46:31;14.75;92.66
71096;DHT22;58753;49.440;11.126;2022-10-16T01:48:59;14.75;92.72
71096;DHT22;58753;49.440;11.126;2022-10-16T01:51:26;14.75;92.75
71096;DHT22;58753;49.440;11.126;2022-10-16T01:53:55;14.76;92.84
71096;DHT22;58753;49.440;11.126;2022-10-16T01:56:22;14.77;92.86
71096;DHT22;58753;49.440;11.126;2022-10-16T01:58:54;14.76;92.84
71096;DHT22;58753;49.440;11.126;2022-10-16T02:01:22;14.79;92.89
71096;DHT22;58753;49.440;11.126;2022-10-16T02:03:51;14.80;92.85
71096;DHT22;58753;49.440;11.126;2022-10-16T02:06:17;14.83;92.82
71096;DHT22;58753;49.440;11.126;2022-10-16T02:08:42;14.82;92.89
71096;DHT22;58753;49.440;11.126;2022-10-16T02:11:09;14.82;92.94
71096;DHT22;58753;49.440;11.126;2022-10-16T02:14:01;14.82;92.94
71096;DHT22;58753;49.440;11.126;2022-10-16T02:16:40;14.83;92.93
71096;DHT22;58753;49.440;11.126;2022-10-16T02:19:07;14.83;92.88
71096;DHT22;58753;49.440;11.126;2022-10-16T02:26:45;14.86;92.83
71096;DHT22;58753;49.440;11.126;2022-10-16T02:29:16;14.90;92.79
71096;DHT22;58753;49.440;11.126;2022-10-16T02:31:46;14.89;92.76
71096;DHT22;58753;49.440;11.126;2022-10-16T02:34:13;14.87;92.77
71096;DHT22;58753;49.440;11.126;2022-10-16T02:36:40;14.87;92.74
71096;DHT22;58753;49.440;11.126;2022-10-16T02:39:06;14.86;92.74
71096;DHT22;58753;49.440;11.126;2022-10-16T02:41:33;14.83;92.74
71096;DHT22;58753;49.440;11.126;2022-10-16T02:43:58;14.80;92.81
71096;DHT22;58753;49.440;11.126;2022-10-16T02:46:23;14.82;92.81
71096;DHT22;58753;49.440;11.126;2022-10-16T02:48:49;14.80;92.90
71096;DHT22;58753;49.440;11.126;2022-10-16T02:51:14;14.79;92.90
71096;DHT22;58753;49.440;11.126;2022-10-16T02:53:40;14.76;92.94
71096;DHT22;58753;49.440;11.126;2022-10-16T02:56:05;14.77;92.99
71096;DHT22;58753;49.440;11.126;2022-10-16T02:58:30;14.75;93.04
71096;DHT22;58753;49.440;11.126;2022-10-16T03:00:56;14.75;93.05
71096;DHT22;58753;49.440;11.126;2022-10-16T03:03:21;14.76;93.14
71096;DHT22;58753;49.440;11.126;2022-10-16T03:05:46;14.76;93.15
71096;DHT22;58753;49.440;11.126;2022-10-16T03:08:12;14.73;93.14
71096;DHT22;58753;49.440;11.126;2022-10-16T03:10:38;14.72;93.25
71096;DHT22;58753;49.440;11.126;2022-10-16T03:13:03;14.68;93.28
71096;DHT22;58753;49.440;11.126;2022-10-16T03:15:29;14.69;93.33
71096;DHT22;58753;49.440;11.126;2022-10-16T03:17:57;14.66;93.42
71096;DHT22;58753;49.440;11.126;2022-10-16T03:20:23;14.66;93.47
71096;DHT22;58753;49.440;11.126;2022-10-16T03:22:48;14.62;93.57
71096;DHT22;58753;49.440;11.126;2022-10-16T03:25:14;14.61;93.61
71096;DHT22;58753;49.440;11.126;2022-10-16T03:27:39;14.62;93.64
71096;DHT22;58753;49.440;11.126;2022-10-16T03:30:05;14.62;93.74
71096;DHT22;58753;49.440;11.126;2022-10-16T03:32:30;14.59;93.74
71096;DHT22;58753;49.440;11.126;2022-10-16T03:34:56;14.58;93.75
71096;DHT22;58753;49.440;11.126;2022-10-16T03:37:22;14.56;93.74
71096;DHT22;58753;49.440;11.126;2022-10-16T03:39:47;14.59;93.80
71096;DHT22;58753;49.440;11.126;2022-10-16T03:42:12;14.56;93.83
71096;DHT22;58753;49.440;11.126;2022-10-16T03:44:38;14.52;93.84
71096;DHT22;58753;49.440;11.126;2022-10-16T03:47:03;14.49;93.85
71096;DHT22;58753;49.440;11.126;2022-10-16T03:49:28;14.49;93.93
71096;DHT22;58753;49.440;11.126;2022-10-16T03:51:54;14.48;94.00
71096;DHT22;58753;49.440;11.126;2022-10-16T03:54:19;14.49;93.96
71096;DHT22;58753;49.440;11.126;2022-10-16T03:56:44;14.48;94.09
71096;DHT22;58753;49.440;11.126;2022-10-16T03:59:10;14.45;94.18
71096;DHT22;58753;49.440;11.126;2022-10-16T04:01:35;14.45;94.18
71096;DHT22;58753;49.440;11.126;2022-10-16T04:04:01;14.46;94.21
71096;DHT22;58753;49.440;11.126;2022-10-16T04:06:26;14.43;94.22
71096;DHT22;58753;49.440;11.126;2022-10-16T04:08:51;14.43;94.25
71096;DHT22;58753;49.440;11.126;2022-10-16T04:11:17;14.43;94.28
71096;DHT22;58753;49.440;11.126;2022-10-16T04:13:42;14.42;94.32
71096;DHT22;58753;49.440;11.126;2022-10-16T04:16:08;14.43;94.43
71096;DHT22;58753;49.440;11.126;2022-10-16T04:18:34;14.45;94.40
71096;DHT22;58753;49.440;11.126;2022-10-16T04:21:04;14.45;94.49
71096;DHT22;58753;49.440;11.126;2022-10-16T04:23:30;14.45;94.57
71096;DHT22;58753;49.440;11.126;2022-10-16T04:25:55;14.46;94.60
71096;DHT22;58753;49.440;11.126;2022-10-16T04:28:21;14.46;94.54
71096;DHT22;58753;49.440;11.126;2022-10-16T04:30:46;14.46;94.57
71096;DHT22;58753;49.440;11.126;2022-10-16T04:33:11;14.45;94.62
71096;DHT22;58753;49.440;11.126;2022-10-16T04:35:38;14.45;94.66
71096;DHT22;58753;49.440;11.126;2022-10-16T04:38:03;14.46;94.68
71096;DHT22;58753;49.440;11.126;2022-10-16T04:40:29;14.42;94.68
71096;DHT22;58753;49.440;11.126;2022-10-16T04:42:54;14.42;94.69
71096;DHT22;58753;49.440;11.126;2022-10-16T04:45:19;14.41;94.69
71096;DHT22;58753;49.440;11.126;2022-10-16T04:47:45;14.41;94.77
71096;DHT22;58753;49.440;11.126;2022-10-16T04:50:10;14.39;94.80
71096;DHT22;58753;49.440;11.126;2022-10-16T04:52:36;14.38;94.84
71096;DHT22;58753;49.440;11.126;2022-10-16T04:55:01;14.35;94.85
71096;DHT22;58753;49.440;11.126;2022-10-16T04:57:29;14.35;94.88
71096;DHT22;58753;49.440;11.126;2022-10-16T04:59:54;14.33;94.96
71096;DHT22;58753;49.440;11.126;2022-10-16T05:02:20;14.32;94.97
71096;DHT22;58753;49.440;11.126;2022-10-16T05:04:45;14.33;95.03
71096;DHT22;58753;49.440;11.126;2022-10-16T05:07:11;14.33;95.03
71096;DHT22;58753;49.440;11.126;2022-10-16T05:09:36;14.31;95.03
71096;DHT22;58753;49.440;11.126;2022-10-16T05:12:01;14.29;95.12
71096;DHT22;58753;49.440;11.126;2022-10-16T05:14:28;14.26;95.05
71096;DHT22;58753;49.440;11.126;2022-10-16T05:16:54;14.28;95.13
71096;DHT22;58753;49.440;11.126;2022-10-16T05:19:19;14.24;95.15
71096;DHT22;58753;49.440;11.126;2022-10-16T05:21:45;14.25;95.12
71096;DHT22;58753;49.440;11.126;2022-10-16T05:24:10;14.25;95.14
71096;DHT22;58753;49.440;11.126;2022-10-16T05:26:35;14.22;95.12
71096;DHT22;58753;49.440;11.126;2022-10-16T05:29:01;14.24;95.20
71096;DHT22;58753;49.440;11.126;2022-10-16T05:31:26;14.21;95.14
71096;DHT22;58753;49.440;11.126;2022-10-16T05:33:51;14.19;95.12
71096;DHT22;58753;49.440;11.126;2022-10-16T05:36:17;14.18;95.17
71096;DHT22;58753;49.440;11.126;2022-10-16T05:38:43;14.15;95.18
71096;DHT22;58753;49.440;11.126;2022-10-16T05:41:09;14.14;95.29
71096;DHT22;58753;49.440;11.126;2022-10-16T05:43:34;14.12;95.36
71096;DHT22;58753;49.440;11.126;2022-10-16T05:46:05;14.12;95.44
71096;DHT22;58753;49.440;11.126;2022-10-16T05:48:31;14.12;95.38
71096;DHT22;58753;49.440;11.126;2022-10-16T05:51:06;14.14;95.33
71096;DHT22;58753;49.440;11.126;2022-10-16T05:53:33;14.14;95.38
71096;DHT22;58753;49.440;11.126;2022-10-16T05:55:59;14.15;95.35
71096;DHT22;58753;49.440;11.126;2022-10-16T05:58:28;14.15;95.43
71096;DHT22;58753;49.440;11.126;2022-10-16T06:01:00;14.14;95.47
71096;DHT22;58753;49.440;11.126;2022-10-16T06:03:25;14.17;95.55
71096;DHT22;58753;49.440;11.126;2022-10-16T06:05:51;14.18;95.57
71096;DHT22;58753;49.440;11.126;2022-10-16T06:08:17;14.21;95.58
71096;DHT22;58753;49.440;11.126;2022-10-16T06:10:44;14.25;95.60
71096;DHT22;58753;49.440;11.126;2022-10-16T06:13:10;14.25;95.59
71096;DHT22;58753;49.440;11.126;2022-10-16T06:15:36;14.25;95.56
71096;DHT22;58753;49.440;11.126;2022-10-16T06:18:04;14.25;95.58
71096;DHT22;58753;49.440;11.126;2022-10-16T06:20:29;14.28;95.58
71096;DHT22;58753;49.440;11.126;2022-10-16T06:22:55;14.31;95.58
71096;DHT22;58753;49.440;11.126;2022-10-16T06:25:20;14.31;95.63
71096;DHT22;58753;49.440;11.126;2022-10-16T06:27:45;14.36;95.69
71096;DHT22;58753;49.440;11.126;2022-10-16T06:30:11;14.42;95.69
71096;DHT22;58753;49.440;11.126;2022-10-16T06:32:36;14.43;95.70
71096;DHT22;58753;49.440;11.126;2022-10-16T06:35:02;14.46;95.75
71096;DHT22;58753;49.440;11.126;2022-10-16T06:37:27;14.51;95.74
71096;DHT22;58753;49.440;11.126;2022-10-16T06:39:52;14.53;95.75
71096;DHT22;58753;49.440;11.126;2022-10-16T06:42:18;14.55;95.79
71096;DHT22;58753;49.440;11.126;2022-10-16T06:44:44;14.59;95.81
71096;DHT22;58753;49.440;11.126;2022-10-16T06:47:09;14.65;95.82
71096;DHT22;58753;49.440;11.126;2022-10-16T06:49:35;14.65;95.82
71096;DHT22;58753;49.440;11.126;2022-10-16T06:52:00;14.66;95.69
71096;DHT22;58753;49.440;11.126;2022-10-16T06:54:27;14.72;95.71
71096;DHT22;58753;49.440;11.126;2022-10-16T06:56:52;14.75;95.52
71096;DHT22;58753;49.440;11.126;2022-10-16T06:59:23;14.77;95.58
71096;DHT22;58753;49.440;11.126;2022-10-16T07:01:48;14.79;95.34
71096;DHT22;58753;49.440;11.126;2022-10-16T07:04:14;14.80;95.20
71096;DHT22;58753;49.440;11.126;2022-10-16T07:06:39;14.80;95.25
71096;DHT22;58753;49.440;11.126;2022-10-16T07:09:07;14.82;95.11
71096;DHT22;58753;49.440;11.126;2022-10-16T07:11:34;14.80;95.12
71096;DHT22;58753;49.440;11.126;2022-10-16T07:13:59;14.82;95.13
71096;DHT22;58753;49.440;11.126;2022-10-16T07:16:27;14.79;95.05
71096;DHT22;58753;49.440;11.126;2022-10-16T07:18:58;14.83;94.88
71096;DHT22;58753;49.440;11.126;2022-10-16T07:21:26;14.86;95.02
71096;DHT22;58753;49.440;11.126;2022-10-16T07:23:55;14.87;94.90
71096;DHT22;58753;49.440;11.126;2022-10-16T07:26:22;14.89;94.79
71096;DHT22;58753;49.440;11.126;2022-10-16T07:28:47;14.89;94.78
71096;DHT22;58753;49.440;11.126;2022-10-16T07:31:14;14.90;94.86
71096;DHT22;58753;49.440;11.126;2022-10-16T07:33:41;14.92;94.89
71096;DHT22;58753;49.440;11.126;2022-10-16T07:36:11;14.94;94.93
71096;DHT22;58753;49.440;11.126;2022-10-16T07:38:36;14.97;94.95
71096;DHT22;58753;49.440;11.126;2022-10-16T07:41:05;14.96;94.99
71096;DHT22;58753;49.440;11.126;2022-10-16T07:43:31;14.99;94.95
71096;DHT22;58753;49.440;11.126;2022-10-16T07:45:57;14.97;94.98
71096;DHT22;58753;49.440;11.126;2022-10-16T07:48:23;15.02;95.00
71096;DHT22;58753;49.440;11.126;2022-10-16T07:50:49;15.03;94.98
71096;DHT22;58753;49.440;11.126;2022-10-16T07:53:15;15.04;95.04
71096;DHT22;58753;49.440;11.126;2022-10-16T07:55:40;15.07;95.01
71096;DHT22;58753;49.440;11.126;2022-10-16T07:58:06;15.08;94.99
71096;DHT22;58753;49.440;11.126;2022-10-16T08:00:32;15.13;95.05
71096;DHT22;58753;49.440;11.126;2022-10-16T08:02:58;15.13;94.82
71096;DHT22;58753;49.440;11.126;2022-10-16T08:05:32;15.19;94.97
71096;DHT22;58753;49.440;11.126;2022-10-16T08:07:57;15.17;94.80
71096;DHT22;58753;49.440;11.126;2022-10-16T08:10:25;15.20;94.88
71096;DHT22;58753;49.440;11.126;2022-10-16T08:12:51;15.22;94.64
71096;DHT22;58753;49.440;11.126;2022-10-16T08:15:18;15.23;94.30
71096;DHT22;58753;49.440;11.126;2022-10-16T08:17:44;15.27;94.37
71096;DHT22;58753;49.440;11.126;2022-10-16T08:20:10;15.28;94.16
71096;DHT22;58753;49.440;11.126;2022-10-16T08:22:35;15.30;94.01
71096;DHT22;58753;49.440;11.126;2022-10-16T08:25:01;15.33;94.16
71096;DHT22;58753;49.440;11.126;2022-10-16T08:27:33;15.34;94.11
71096;DHT22;58753;49.440;11.126;2022-10-16T08:29:59;15.34;93.75
71096;DHT22;58753;49.440;11.126;2022-10-16T08:32:24;15.35;93.94
71096;DHT22;58753;49.440;11.126;2022-10-16T08:34:49;15.41;93.66
71096;DHT22;58753;49.440;11.126;2022-10-16T08:37:15;15.43;93.55
71096;DHT22;58753;49.440;11.126;2022-10-16T08:39:40;15.51;93.46
71096;DHT22;58753;49.440;11.126;2022-10-16T08:49:05;15.69;92.84
71096;DHT22;58753;49.440;11.126;2022-10-16T08:50:58;15.75;92.93
71096;DHT22;58753;49.440;11.126;2022-10-16T08:53:49;15.77;92.56
71096;DHT22;58753;49.440;11.126;2022-10-16T08:56:17;15.84;92.26
71096;DHT22;58753;49.440;11.126;2022-10-16T08:58:42;15.91;92.43
71096;DHT22;58753;49.440;11.126;2022-10-16T09:01:15;15.92;92.16
71096;DHT22;58753;49.440;11.126;2022-10-16T09:03:54;16.01;91.66
71096;DHT22;58753;49.440;11.126;2022-10-16T09:09:31;16.19;91.53
71096;DHT22;58753;49.440;11.126;2022-10-16T09:17:44;16.43;90.53
71096;DHT22;58753;49.440;11.126;2022-10-16T09:20:30;16.56;89.93
71096;DHT22;58753;49.440;11.126;2022-10-16T09:25:30;16.79;88.96
71096;DHT22;58753;49.440;11.126;2022-10-16T09:27:55;16.87;88.08
71096;DHT22;58753;49.440;11.126;2022-10-16T09:30:22;16.93;87.90
71096;DHT22;58753;49.440;11.126;2022-10-16T09:32:51;16.93;87.12
71096;DHT22;58753;49.440;11.126;2022-10-16T09:35:20;16.94;86.79
71096;DHT22;58753;49.440;11.126;2022-10-16T09:37:49;16.93;86.96
71096;DHT22;58753;49.440;11.126;2022-10-16T09:40:36;16.93;86.53
71096;DHT22;58753;49.440;11.126;2022-10-16T09:43:12;16.85;86.41
71096;DHT22;58753;49.440;11.126;2022-10-16T09:45:41;16.81;86.13
71096;DHT22;58753;49.440;11.126;2022-10-16T09:48:13;16.79;85.71
71096;DHT22;58753;49.440;11.126;2022-10-16T09:50:43;16.77;85.71
71096;DHT22;58753;49.440;11.126;2022-10-16T09:53:14;16.77;85.75
71096;DHT22;58753;49.440;11.126;2022-10-16T09:55:50;16.74;85.61
71096;DHT22;58753;49.440;11.126;2022-10-16T09:58:15;16.70;85.70
71096;DHT22;58753;49.440;11.126;2022-10-16T10:00:42;16.70;85.78
71096;DHT22;58753;49.440;11.126;2022-10-16T10:06:07;16.76;85.52
71096;DHT22;58753;49.440;11.126;2022-10-16T10:08:41;16.84;85.57
71096;DHT22;58753;49.440;11.126;2022-10-16T10:11:06;16.97;85.40
71096;DHT22;58753;49.440;11.126;2022-10-16T10:13:32;17.03;85.19
71096;DHT22;58753;49.440;11.126;2022-10-16T10:15:57;17.15;85.16
71096;DHT22;58753;49.440;11.126;2022-10-16T10:18:23;17.27;85.43
71096;DHT22;58753;49.440;11.126;2022-10-16T10:21:00;17.38;84.40
71096;DHT22;58753;49.440;11.126;2022-10-16T10:23:27;17.54;83.87
71096;DHT22;58753;49.440;11.126;2022-10-16T10:26:13;17.68;83.56
71096;DHT22;58753;49.440;11.126;2022-10-16T10:28:50;17.81;82.58
71096;DHT22;58753;49.440;11.126;2022-10-16T10:34:31;17.93;81.67
71096;DHT22;58753;49.440;11.126;2022-10-16T10:37:32;18.02;81.75
71096;DHT22;58753;49.440;11.126;2022-10-16T10:40:16;18.12;81.39
71096;DHT22;58753;49.440;11.126;2022-10-16T10:45:26;18.36;80.93
71096;DHT22;58753;49.440;11.126;2022-10-16T10:50:57;18.70;80.20
71096;DHT22;58753;49.440;11.126;2022-10-16T10:53:35;18.88;80.43
71096;DHT22;58753;49.440;11.126;2022-10-16T11:02:15;19.04;78.78
71096;DHT22;58753;49.440;11.126;2022-10-16T11:07:32;18.92;77.89
71096;DHT22;58753;49.440;11.126;2022-10-16T11:10:42;18.90;78.00
71096;DHT22;58753;49.440;11.126;2022-10-16T11:15:54;18.90;77.99
71096;DHT22;58753;49.440;11.126;2022-10-16T11:18:27;18.91;77.90
71096;DHT22;58753;49.440;11.126;2022-10-16T11:21:09;18.90;77.66
71096;DHT22;58753;49.440;11.126;2022-10-16T11:23:44;18.98;77.98
71096;DHT22;58753;49.440;11.126;2022-10-16T11:26:28;19.05;77.97
71096;DHT22;58753;49.440;11.126;2022-10-16T11:28:56;19.11;77.38
71096;DHT22;58753;49.440;11.126;2022-10-16T11:31:36;19.15;77.43
71096;DHT22;58753;49.440;11.126;2022-10-16T11:34:17;19.15;77.12
71096;DHT22;58753;49.440;11.126;2022-10-16T11:36:49;19.18;76.89
71096;DHT22;58753;49.440;11.126;2022-10-16T11:39:30;19.25;76.86
71096;DHT22;58753;49.440;11.126;2022-10-16T11:42:21;19.32;77.08
71096;DHT22;58753;49.440;11.126;2022-10-16T11:47:38;19.51;76.72
71096;DHT22;58753;49.440;11.126;2022-10-16T11:50:24;19.66;76.07
71096;DHT22;58753;49.440;11.126;2022-10-16T11:55:43;20.23;75.90
71096;DHT22;58753;49.440;11.126;2022-10-16T11:58:23;20.33;74.63
71096;DHT22;58753;49.440;11.126;2022-10-16T12:04:03;20.63;73.67
71096;DHT22;58753;49.440;11.126;2022-10-16T12:06:37;20.64;73.22
71096;DHT22;58753;49.440;11.126;2022-10-16T12:09:21;20.57;72.58
71096;DHT22;58753;49.440;11.126;2022-10-16T12:11:47;20.58;72.50
71096;DHT22;58753;49.440;11.126;2022-10-16T12:16:59;21.39;72.67
71096;DHT22;58753;49.440;11.126;2022-10-16T12:19:28;21.69;71.26
71096;DHT22;58753;49.440;11.126;2022-10-16T12:21:56;21.97;71.14
71096;DHT22;58753;49.440;11.126;2022-10-16T12:24:38;22.17;68.70
71096;DHT22;58753;49.440;11.126;2022-10-16T12:27:27;22.07;68.39
71096;DHT22;58753;49.440;11.126;2022-10-16T12:30:01;22.30;67.88
71096;DHT22;58753;49.440;11.126;2022-10-16T12:32:28;22.45;67.73
71096;DHT22;58753;49.440;11.126;2022-10-16T12:34:54;22.69;67.12
71096;DHT22;58753;49.440;11.126;2022-10-16T12:37:23;22.75;65.55
71096;DHT22;58753;49.440;11.126;2022-10-16T12:39:50;22.95;65.52
71096;DHT22;58753;49.440;11.126;2022-10-16T12:44:51;22.24;65.08
71096;DHT22;58753;49.440;11.126;2022-10-16T12:52:49;21.80;66.89
71096;DHT22;58753;49.440;11.126;2022-10-16T12:55:19;22.04;67.30
71096;DHT22;58753;49.440;11.126;2022-10-16T12:58:06;22.03;66.32
71096;DHT22;58753;49.440;11.126;2022-10-16T13:01:07;21.86;66.15
71096;DHT22;58753;49.440;11.126;2022-10-16T13:04:10;21.79;66.35
71096;DHT22;58753;49.440;11.126;2022-10-16T13:07:28;21.73;66.75
71096;DHT22;58753;49.440;11.126;2022-10-16T13:12:51;21.70;66.78
71096;DHT22;58753;49.440;11.126;2022-10-16T13:15:35;21.76;66.08
71096;DHT22;58753;49.440;11.126;2022-10-16T13:18:29;21.81;65.79
71096;DHT22;58753;49.440;11.126;2022-10-16T13:21:31;21.77;66.17
71096;DHT22;58753;49.440;11.126;2022-10-16T13:24:01;21.77;66.29
71096;DHT22;58753;49.440;11.126;2022-10-16T13:26:44;21.76;66.30
71096;DHT22;58753;49.440;11.126;2022-10-16T13:29:12;21.63;65.95
71096;DHT22;58753;49.440;11.126;2022-10-16T13:31:39;21.50;65.73
71096;DHT22;58753;49.440;11.126;2022-10-16T13:34:05;21.52;65.93
71096;DHT22;58753;49.440;11.126;2022-10-16T13:36:42;21.42;66.66
71096;DHT22;58753;49.440;11.126;2022-10-16T13:42:06;21.18;67.87
71096;DHT22;58753;49.440;11.126;2022-10-16T13:44:44;21.18;68.22
71096;DHT22;58753;49.440;11.126;2022-10-16T13:47:17;21.25;68.63
71096;DHT22;58753;49.440;11.126;2022-10-16T13:49:43;21.36;68.61
71096;DHT22;58753;49.440;11.126;2022-10-16T13:52:20;21.46;67.84
71096;DHT22;58753;49.440;11.126;2022-10-16T13:54:45;21.57;67.12
71096;DHT22;58753;49.440;11.126;2022-10-16T13:57:14;21.76;67.26
71096;DHT22;58753;49.440;11.126;2022-10-16T13:59:39;21.90;66.95
71096;DHT22;58753;49.440;11.126;2022-10-16T14:02:31;22.03;66.25
71096;DHT22;58753;49.440;11.126;2022-10-16T14:05:01;22.07;65.79
71096;DHT22;58753;49.440;11.126;2022-10-16T14:07:29;22.22;66.25
71096;DHT22;58753;49.440;11.126;2022-10-16T14:10:01;22.27;64.64
71096;DHT22;58753;49.440;11.126;2022-10-16T14:12:27;22.51;64.55
71096;DHT22;58753;49.440;11.126;2022-10-16T14:14:53;22.71;64.16
71096;DHT22;58753;49.440;11.126;2022-10-16T14:19:47;22.62;62.41
71096;DHT22;58753;49.440;11.126;2022-10-16T14:24:55;22.52;61.62
71096;DHT22;58753;49.440;11.126;2022-10-16T14:27:28;22.55;61.58
71096;DHT22;58753;49.440;11.126;2022-10-16T14:30:25;22.54;61.24
71096;DHT22;58753;49.440;11.126;2022-10-16T14:32:56;22.28;61.14
71096;DHT22;58753;49.440;11.126;2022-10-16T14:35:31;22.00;61.73
71096;DHT22;58753;49.440;11.126;2022-10-16T14:37:57;21.86;62.32
71096;DHT22;58753;49.440;11.126;2022-10-16T14:40:26;21.71;63.13
71096;DHT22;58753;49.440;11.126;2022-10-16T14:42:53;21.63;63.89
71096;DHT22;58753;49.440;11.126;2022-10-16T14:45:20;21.54;64.42
71096;DHT22;58753;49.440;11.126;2022-10-16T14:47:56;21.43;65.36
71096;DHT22;58753;49.440;11.126;2022-10-16T14:50:22;21.28;65.71
71096;DHT22;58753;49.440;11.126;2022-10-16T14:52:48;21.16;66.18
71096;DHT22;58753;49.440;11.126;2022-10-16T14:55:14;21.10;66.11
71096;DHT22;58753;49.440;11.126;2022-10-16T14:57:40;21.03;66.30
71096;DHT22;58753;49.440;11.126;2022-10-16T15:00:20;21.00;66.73
71096;DHT22;58753;49.440;11.126;2022-10-16T15:02:47;20.95;67.06
71096;DHT22;58753;49.440;11.126;2022-10-16T15:05:25;20.87;67.59
71096;DHT22;58753;49.440;11.126;2022-10-16T15:07:53;20.81;67.99
71096;DHT22;58753;49.440;11.126;2022-10-16T15:10:20;20.75;67.83
71096;DHT22;58753;49.440;11.126;2022-10-16T15:12:46;20.72;67.87
71096;DHT22;58753;49.440;11.126;2022-10-16T15:17:46;20.58;68.25
71096;DHT22;58753;49.440;11.126;2022-10-16T15:20:11;20.48;68.92
71096;DHT22;58753;49.440;11.126;2022-10-16T15:22:36;20.40;69.72
71096;DHT22;58753;49.440;11.126;2022-10-16T15:25:54;20.28;70.10
71096;DHT22;58753;49.440;11.126;2022-10-16T15:27:54;20.17;70.57
71096;DHT22;58753;49.440;11.126;2022-10-16T15:30:20;20.10;70.93
71096;DHT22;58753;49.440;11.126;2022-10-16T15:32:45;20.03;71.42
71096;DHT22;58753;49.440;11.126;2022-10-16T15:35:11;19.94;71.92
71096;DHT22;58753;49.440;11.126;2022-10-16T15:37:36;19.84;72.49
71096;DHT22;58753;49.440;11.126;2022-10-16T15:40:02;19.80;73.22
71096;DHT22;58753;49.440;11.126;2022-10-16T15:42:27;19.73;73.77
71096;DHT22;58753;49.440;11.126;2022-10-16T15:44:53;19.67;74.53
71096;DHT22;58753;49.440;11.126;2022-10-16T15:47:18;19.61;75.20
71096;DHT22;58753;49.440;11.126;2022-10-16T15:49:43;19.49;75.79
71096;DHT22;58753;49.440;11.126;2022-10-16T15:52:09;19.42;76.31
71096;DHT22;58753;49.440;11.126;2022-10-16T15:54:34;19.35;76.79
71096;DHT22;58753;49.440;11.126;2022-10-16T15:56:59;19.25;77.26
71096;DHT22;58753;49.440;11.126;2022-10-16T15:59:25;19.21;77.71
71096;DHT22;58753;49.440;11.126;2022-10-16T16:01:50;19.14;78.07
71096;DHT22;58753;49.440;11.126;2022-10-16T16:04:15;19.04;78.44
71096;DHT22;58753;49.440;11.126;2022-10-16T16:06:42;19.00;78.79
71096;DHT22;58753;49.440;11.126;2022-10-16T16:09:13;18.92;79.19
71096;DHT22;58753;49.440;11.126;2022-10-16T16:11:38;18.84;79.56
71096;DHT22;58753;49.440;11.126;2022-10-16T16:14:10;18.81;79.91
71096;DHT22;58753;49.440;11.126;2022-10-16T16:16:38;18.71;80.25
71096;DHT22;58753;49.440;11.126;2022-10-16T16:19:04;18.68;80.54
71096;DHT22;58753;49.440;11.126;2022-10-16T16:21:32;18.61;80.86
71096;DHT22;58753;49.440;11.126;2022-10-16T16:23:57;18.57;81.20
71096;DHT22;58753;49.440;11.126;2022-10-16T16:26:29;18.51;81.47
71096;DHT22;58753;49.440;11.126;2022-10-16T16:29:02;18.44;81.56
71096;DHT22;58753;49.440;11.126;2022-10-16T16:31:30;18.36;81.68
71096;DHT22;58753;49.440;11.126;2022-10-16T16:33:55;18.34;81.88
71096;DHT22;58753;49.440;11.126;2022-10-16T16:36:22;18.26;81.95
71096;DHT22;58753;49.440;11.126;2022-10-16T16:38:48;18.22;82.08
71096;DHT22;58753;49.440;11.126;2022-10-16T16:41:18;18.13;82.24
71096;DHT22;58753;49.440;11.126;2022-10-16T16:43:44;18.12;82.54
71096;DHT22;58753;49.440;11.126;2022-10-16T16:46:10;18.09;82.69
71096;DHT22;58753;49.440;11.126;2022-10-16T16:48:37;18.03;82.81
71096;DHT22;58753;49.440;11.126;2022-10-16T16:51:07;17.97;83.16
71096;DHT22;58753;49.440;11.126;2022-10-16T16:53:35;17.95;83.38
71096;DHT22;58753;49.440;11.126;2022-10-16T16:56:04;17.92;83.59
71096;DHT22;58753;49.440;11.126;2022-10-16T16:58:31;17.89;83.80
71096;DHT22;58753;49.440;11.126;2022-10-16T17:00:56;17.89;84.03
71096;DHT22;58753;49.440;11.126;2022-10-16T17:03:29;17.85;84.24
71096;DHT22;58753;49.440;11.126;2022-10-16T17:06:05;17.82;84.33
71096;DHT22;58753;49.440;11.126;2022-10-16T17:08:31;17.78;84.61